Time;durP1;ratioP1;P1;durP2;ratioP2;P2;SDS_P1;SDS_P2;PMS_P1;PMS_P2;Temp;Humidity;BMP_temperature;BMP_pressure;BME280_temperature;BME280_humidity;BME280_pressure;Samples;Min_cycle;Max_cycle;Signal;HPM_P1;HPM_P2
2023/01/11 00:00:35;;;;;;;2.20;0.60;;;12.20;59.80;;;;;;2318809;55;20934;-83
2023/01/11 00:03:02;;;;;;;2.55;0.80;;;12.10;59.70;;;;;;2318116;55;20931;-84
2023/01/11 00:05:28;;;;;;;2.65;0.80;;;12.10;59.80;;;;;;2556129;54;21601;-83
2023/01/11 00:07:54;;;;;;;1.87;0.68;;;12.20;59.80;;;;;;2556575;54;21016;-82
2023/01/11 00:10:21;;;;;;;3.22;0.88;;;12.20;59.90;;;;;;2556481;54;20949;-83
2023/01/11 00:12:47;;;;;;;2.15;0.50;;;12.20;60.00;;;;;;2556604;54;20969;-83
2023/01/11 00:15:14;;;;;;;1.77;0.60;;;12.20;60.00;;;;;;2316714;55;20929;-82
2023/01/11 00:17:41;;;;;;;2.67;0.60;;;12.20;60.00;;;;;;2555612;54;21842;-83
2023/01/11 00:20:09;;;;;;;3.15;0.70;;;12.20;60.00;;;;;;2315000;55;20957;-83
2023/01/11 00:22:35;;;;;;;2.40;0.68;;;12.30;60.20;;;;;;2553766;54;21025;-83
2023/01/11 00:25:02;;;;;;;1.92;0.60;;;12.30;60.20;;;;;;2554385;54;20981;-83
2023/01/11 00:27:28;;;;;;;1.92;0.70;;;12.30;60.20;;;;;;2313794;55;21529;-83
2023/01/11 00:29:54;;;;;;;2.03;0.70;;;12.30;60.30;;;;;;2314075;55;21020;-83
2023/01/11 00:32:21;;;;;;;3.65;0.70;;;12.30;60.30;;;;;;2553595;54;20973;-83
2023/01/11 00:34:47;;;;;;;3.00;0.73;;;12.30;60.30;;;;;;2556595;54;20926;-83
2023/01/11 00:37:14;;;;;;;0.98;0.50;;;12.30;60.30;;;;;;2556324;54;21029;-83
2023/01/11 00:39:41;;;;;;;2.90;0.80;;;12.40;60.50;;;;;;2556846;54;21041;-83
2023/01/11 00:47:56;;;;;;;1.80;0.57;;;12.40;60.70;;;;;;2318262;55;20926;-83
2023/01/11 00:50:36;;;;;;;2.60;0.60;;;12.40;60.60;;;;;;2317995;55;21008;-84
2023/01/11 00:53:02;;;;;;;1.83;0.60;;;12.50;60.40;;;;;;2557916;54;21194;-83
2023/01/11 00:55:30;;;;;;;2.12;0.88;;;12.50;60.80;;;;;;2317047;55;21001;-83
2023/01/11 00:57:57;;;;;;;2.67;0.62;;;12.50;60.90;;;;;;2556228;54;20917;-83
2023/01/11 01:00:23;;;;;;;1.95;0.60;;;12.50;61.00;;;;;;2556771;54;20945;-83
2023/01/11 01:02:50;;;;;;;2.28;0.80;;;12.50;61.00;;;;;;2555894;54;20942;-82
2023/01/11 01:05:17;;;;;;;2.65;0.80;;;12.50;61.00;;;;;;2553719;54;20953;-83
2023/01/11 01:07:44;;;;;;;1.45;0.60;;;12.50;61.00;;;;;;2315547;55;20953;-83
2023/01/11 01:10:11;;;;;;;2.05;0.60;;;12.50;61.10;;;;;;2314969;55;20953;-82
2023/01/11 01:15:22;;;;;;;2.30;0.70;;;12.60;61.40;;;;;;2554375;54;20946;-82
2023/01/11 01:17:51;;;;;;;1.83;0.60;;;12.60;61.40;;;;;;2315403;55;21034;-83
2023/01/11 01:20:19;;;;;;;3.70;0.60;;;12.60;61.50;;;;;;2553287;54;21046;-83
2023/01/11 01:22:45;;;;;;;1.75;0.52;;;12.70;61.70;;;;;;2555774;54;20978;-82
2023/01/11 01:25:13;;;;;;;2.72;0.57;;;12.70;61.80;;;;;;2556857;54;20969;-82
2023/01/11 01:27:39;;;;;;;1.23;0.40;;;12.70;61.80;;;;;;2553327;54;21076;-82
2023/01/11 01:30:08;;;;;;;2.35;0.70;;;12.70;61.90;;;;;;2557994;54;20933;-82
2023/01/11 01:32:35;;;;;;;1.48;0.50;;;12.70;61.90;;;;;;2558805;54;20945;-82
2023/01/11 01:35:01;;;;;;;2.10;0.73;;;12.80;62.10;;;;;;2320384;55;20985;-83
2023/01/11 01:37:28;;;;;;;1.92;0.60;;;12.80;62.10;;;;;;2559347;54;20985;-82
2023/01/11 01:39:54;;;;;;;1.05;0.45;;;12.80;62.10;;;;;;2560363;54;20941;-82
2023/01/11 01:42:23;;;;;;;1.75;0.57;;;12.80;62.10;;;;;;2319398;55;21005;-83
2023/01/11 01:45:03;;;;;;;1.67;0.60;;;12.90;62.30;;;;;;2560356;54;20937;-82
2023/01/11 01:47:42;;;;;;;1.23;0.52;;;12.90;62.20;;;;;;2559819;54;21513;-83
2023/01/11 01:50:16;;;;;;;0.90;0.43;;;12.90;62.30;;;;;;2559853;54;21616;-83
2023/01/11 01:52:43;;;;;;;1.65;0.60;;;12.90;62.40;;;;;;2560259;54;20926;-82
2023/01/11 01:55:11;;;;;;;1.90;0.57;;;13.00;62.60;;;;;;2560138;54;21438;-81
2023/01/11 01:57:38;;;;;;;1.33;0.50;;;13.00;62.60;;;;;;2559036;54;20997;-82
2023/01/11 02:00:06;;;;;;;1.52;0.47;;;13.00;62.70;;;;;;2557297;54;22442;-82
2023/01/11 02:02:32;;;;;;;1.62;0.60;;;13.00;62.70;;;;;;2556905;54;20914;-83
2023/01/11 02:04:58;;;;;;;1.48;0.50;;;13.10;62.80;;;;;;2556915;54;21029;-82
2023/01/11 02:07:30;;;;;;;1.15;0.47;;;13.10;62.80;;;;;;2316433;55;21928;-83
2023/01/11 02:10:13;;;;;;;2.15;0.60;;;13.10;62.80;;;;;;2557285;54;20966;-82
2023/01/11 02:12:44;;;;;;;;;;;13.20;62.70;;;;;;2320054;55;21799;-82
2023/01/11 02:15:11;;;;;;;1.67;0.60;;;13.20;62.10;;;;;;2316947;55;20067;-82
2023/01/11 02:17:37;;;;;;;1.37;0.60;;;13.30;62.90;;;;;;2557010;54;20981;-82
2023/01/11 02:21:34;;;;;;;4.07;0.90;;;13.20;62.80;;;;;;2556670;54;21588;-82
2023/01/11 02:24:36;;;;;;;1.20;0.47;;;13.20;62.60;;;;;;2556580;54;21790;-82
2023/01/11 02:27:27;;;;;;;1.98;0.60;;;13.30;62.70;;;;;;2556649;54;20921;-82
2023/01/11 02:30:08;;;;;;;1.67;0.60;;;13.30;62.70;;;;;;2319981;55;20998;-82
2023/01/11 02:34:07;;;;;;;1.48;0.50;;;13.30;62.70;;;;;;2560362;54;20950;-82
2023/01/11 02:37:03;;;;;;;2.08;0.70;;;13.30;62.90;;;;;;2560371;54;20926;-83
2023/01/11 02:39:58;;;;;;;1.33;0.40;;;13.40;62.90;;;;;;2560124;54;21021;-82
2023/01/11 02:46:29;;;;;;;2.33;0.62;;;13.30;63.00;;;;;;2320670;55;20926;-82
2023/01/11 02:49:20;;;;;;;0.98;0.30;;;13.40;63.30;;;;;;2319447;55;20948;-83
2023/01/11 02:51:51;;;;;;;3.35;0.50;;;13.40;63.30;;;;;;2560499;54;20918;-84
2023/01/11 02:54:20;;;;;;;3.17;0.50;;;13.40;63.30;;;;;;2320225;55;21013;-82
2023/01/11 02:56:47;;;;;;;1.58;0.40;;;13.40;63.30;;;;;;2320294;55;21039;-83
2023/01/11 02:59:22;;;;;;;1.30;0.52;;;13.40;63.40;;;;;;2319189;55;20962;-82
2023/01/11 03:01:52;;;;;;;1.67;0.60;;;13.40;63.50;;;;;;2320034;55;21017;-82
2023/01/11 03:04:32;;;;;;;1.15;0.50;;;13.50;63.50;;;;;;2559919;54;20937;-82
2023/01/11 03:08:05;;;;;;;1.70;0.50;;;13.40;63.20;;;;;;2302438;55;21248;-82
2023/01/11 03:10:49;;;;;;;1.27;0.40;;;13.50;63.40;;;;;;2320439;55;20977;-82
2023/01/11 03:17:56;;;;;;;0.82;0.30;;;13.40;63.10;;;;;;2559451;54;20922;-83
2023/01/11 03:22:29;;;;;;;1.02;0.43;;;13.50;62.90;;;;;;2560170;54;20906;-82
2023/01/11 03:26:38;;;;;;;1.60;0.50;;;13.60;63.10;;;;;;2320131;55;20997;-82
2023/01/11 03:29:10;;;;;;;1.35;0.40;;;13.60;63.50;;;;;;2319328;55;20974;-82
2023/01/11 03:32:15;;;;;;;0.93;0.40;;;13.50;63.70;;;;;;2559813;54;20922;-82
2023/01/11 03:34:56;;;;;;;1.58;0.40;;;13.50;63.50;;;;;;2323473;55;20953;-82
2023/01/11 03:38:08;;;;;;;1.17;0.40;;;13.60;63.90;;;;;;2300667;55;21056;-82
2023/01/11 03:40:39;;;;;;;1.25;0.30;;;13.60;63.50;;;;;;2319845;55;20930;-82
2023/01/11 03:43:10;;;;;;;0.65;0.30;;;13.60;64.20;;;;;;2319429;55;20942;-82
2023/01/11 03:46:39;;;;;;;0.77;0.20;;;13.60;64.20;;;;;;2560318;54;21017;-83
2023/01/11 03:49:12;;;;;;;1.05;0.30;;;13.60;64.20;;;;;;2319501;55;21017;-82
2023/01/11 03:51:41;;;;;;;1.05;0.40;;;13.60;64.10;;;;;;2531284;54;21422;-83
2023/01/11 03:54:08;;;;;;;0.70;0.40;;;13.60;64.20;;;;;;2559765;54;20993;-82
2023/01/11 03:56:59;;;;;;;0.82;0.40;;;13.60;64.20;;;;;;2560255;54;21029;-82
2023/01/11 03:59:25;;;;;;;0.65;0.32;;;13.70;64.00;;;;;;2559802;54;20997;-83
2023/01/11 04:01:53;;;;;;;1.30;0.40;;;13.70;64.30;;;;;;2560244;54;20925;-83
2023/01/11 04:04:19;;;;;;;2.22;0.40;;;13.70;64.20;;;;;;2319957;55;20953;-82
2023/01/11 04:06:45;;;;;;;0.77;0.37;;;13.70;64.30;;;;;;2560588;54;20918;-82
2023/01/11 04:09:12;;;;;;;1.20;0.40;;;13.70;64.20;;;;;;2559564;54;20981;-82
2023/01/11 04:11:38;;;;;;;1.83;0.40;;;13.80;64.30;;;;;;2320334;55;20986;-82
2023/01/11 04:14:05;;;;;;;0.73;0.30;;;13.80;64.30;;;;;;2319939;55;21377;-82
2023/01/11 04:16:31;;;;;;;1.27;0.40;;;13.80;64.20;;;;;;2560088;54;20910;-82
2023/01/11 04:18:58;;;;;;;0.90;0.35;;;13.80;64.20;;;;;;2300672;55;20937;-83
2023/01/11 04:21:24;;;;;;;0.70;0.30;;;13.80;64.20;;;;;;2559278;54;21902;-83
2023/01/11 04:23:51;;;;;;;0.75;0.30;;;13.80;64.20;;;;;;2560086;54;20937;-82
2023/01/11 04:26:17;;;;;;;0.55;0.22;;;13.80;64.10;;;;;;2319268;55;20989;-83
2023/01/11 04:28:44;;;;;;;0.75;0.25;;;13.80;64.00;;;;;;2560058;54;21801;-83
2023/01/11 04:31:10;;;;;;;1.95;0.32;;;13.80;64.00;;;;;;2559104;54;20933;-82
2023/01/11 04:33:37;;;;;;;0.82;0.30;;;13.80;64.00;;;;;;2559877;54;21037;-83
2023/01/11 04:36:05;;;;;;;0.30;0.17;;;13.80;64.00;;;;;;2319868;55;20997;-82
2023/01/11 04:38:32;;;;;;;0.90;0.30;;;13.80;64.00;;;;;;2302644;55;20961;-82
2023/01/11 04:43:43;;;;;;;1.48;0.30;;;13.80;64.00;;;;;;2560326;54;21517;-82
2023/01/11 04:46:09;;;;;;;1.33;0.40;;;13.80;64.00;;;;;;2319509;55;21019;-83
2023/01/11 04:48:38;;;;;;;1.60;0.43;;;13.80;63.90;;;;;;2319802;55;22175;-83
2023/01/11 04:51:07;;;;;;;0.77;0.30;;;13.80;64.50;;;;;;2559995;54;21017;-82
2023/01/11 04:53:34;;;;;;;0.32;0.20;;;13.80;63.70;;;;;;2560176;54;20937;-82
2023/01/11 04:56:03;;;;;;;0.73;0.30;;;13.80;63.80;;;;;;2559908;54;21570;-83
2023/01/11 04:58:30;;;;;;;0.82;0.40;;;13.80;63.70;;;;;;2319628;55;20914;-82
2023/01/11 05:00:56;;;;;;;0.90;0.40;;;13.80;63.90;;;;;;2555588;54;20981;-82
2023/01/11 05:03:23;;;;;;;1.75;0.20;;;13.80;63.90;;;;;;2316067;55;20954;-84
2023/01/11 05:05:58;;;;;;;0.80;0.30;;;13.80;63.90;;;;;;2314948;55;21553;-87
2023/01/11 05:08:25;;;;;;;1.85;0.60;;;13.80;63.70;;;;;;2553689;54;20996;-82
2023/01/11 05:10:55;;;;;;;0.47;0.20;;;13.80;64.00;;;;;;2554148;54;20926;-82
2023/01/11 05:13:40;;;;;;;1.58;0.30;;;13.80;63.90;;;;;;2316242;55;20950;-81
2023/01/11 05:16:08;;;;;;;0.73;0.30;;;13.80;64.00;;;;;;2317166;55;20973;-82
2023/01/11 05:18:34;;;;;;;1.42;0.30;;;13.80;64.00;;;;;;2313881;55;20922;-82
2023/01/11 05:21:01;;;;;;;0.65;0.25;;;13.80;64.00;;;;;;2554251;54;20954;-83
2023/01/11 05:23:27;;;;;;;0.73;0.30;;;13.80;64.10;;;;;;2553726;54;20957;-82
2023/01/11 05:25:54;;;;;;;0.95;0.22;;;13.70;64.00;;;;;;2554320;54;21042;-82
2023/01/11 05:28:20;;;;;;;0.52;0.28;;;13.70;64.10;;;;;;2553603;54;21069;-82
2023/01/11 05:30:51;;;;;;;0.73;0.30;;;13.70;64.10;;;;;;2554698;54;20993;-82
2023/01/11 05:33:19;;;;;;;0.55;0.30;;;13.70;64.10;;;;;;2552644;54;20942;-82
2023/01/11 05:35:45;;;;;;;0.52;0.28;;;13.70;64.20;;;;;;2558154;54;20938;-82
2023/01/11 05:38:11;;;;;;;1.25;0.30;;;13.70;64.20;;;;;;2318462;55;21759;-83
2023/01/11 05:40:38;;;;;;;1.73;0.30;;;13.70;64.30;;;;;;2318478;55;20922;-82
2023/01/11 05:43:05;;;;;;;0.85;0.40;;;13.70;64.30;;;;;;2557992;54;20950;-82
2023/01/11 05:45:32;;;;;;;0.50;0.20;;;13.70;64.40;;;;;;2558739;54;21008;-82
2023/01/11 05:47:58;;;;;;;0.73;0.30;;;13.70;64.50;;;;;;2558174;54;20942;-82
2023/01/11 05:50:25;;;;;;;2.25;0.32;;;13.70;64.50;;;;;;2317066;55;21081;-83
2023/01/11 05:52:51;;;;;;;1.00;0.40;;;13.90;64.70;;;;;;2557224;54;21054;-83
2023/01/11 05:55:17;;;;;;;0.55;0.32;;;13.80;64.70;;;;;;2316654;55;21909;-82
2023/01/11 05:57:44;;;;;;;0.93;0.30;;;13.80;64.70;;;;;;2557662;54;21053;-82
2023/01/11 06:00:11;;;;;;;0.45;0.22;;;13.80;64.70;;;;;;2316880;55;20950;-83
2023/01/11 06:02:37;;;;;;;0.70;0.30;;;13.80;64.80;;;;;;2528655;54;21933;-82
2023/01/11 06:05:04;;;;;;;0.45;0.20;;;13.80;64.80;;;;;;2315416;55;20937;-82
2023/01/11 06:07:31;;;;;;;0.28;0.20;;;13.90;64.90;;;;;;2555013;54;21032;-83
2023/01/11 06:09:57;;;;;;;0.90;0.32;;;13.90;64.90;;;;;;2554445;54;20911;-82
2023/01/11 06:12:24;;;;;;;0.62;0.20;;;13.90;64.80;;;;;;2554330;54;20953;-82
2023/01/11 06:14:50;;;;;;;1.20;0.40;;;13.90;64.80;;;;;;2555045;54;20913;-82
2023/01/11 06:17:18;;;;;;;0.52;0.20;;;13.90;64.60;;;;;;2553976;54;20992;-83
2023/01/11 06:19:44;;;;;;;0.90;0.20;;;13.90;64.70;;;;;;2557133;54;22186;-82
2023/01/11 06:22:10;;;;;;;0.52;0.25;;;14.00;64.80;;;;;;2556785;54;20945;-83
2023/01/11 06:24:37;;;;;;;1.08;0.40;;;14.00;64.80;;;;;;2316993;55;22045;-82
2023/01/11 06:27:03;;;;;;;0.62;0.20;;;14.00;64.90;;;;;;2556672;54;21077;-83
2023/01/11 06:29:29;;;;;;;0.30;0.20;;;14.00;64.80;;;;;;2556250;54;20917;-82
2023/01/11 06:31:57;;;;;;;0.85;0.50;;;14.00;65.60;;;;;;2317193;55;20942;-82
2023/01/11 06:34:23;;;;;;;0.55;0.30;;;14.00;64.90;;;;;;2558207;54;21120;-81
2023/01/11 06:36:49;;;;;;;0.40;0.22;;;14.00;64.80;;;;;;2559227;54;21971;-82
2023/01/11 06:39:16;;;;;;;0.80;0.32;;;14.10;65.00;;;;;;2557198;54;20992;-82
2023/01/11 06:41:42;;;;;;;1.87;0.40;;;14.10;64.90;;;;;;2559154;54;20925;-84
2023/01/11 06:44:09;;;;;;;1.20;0.30;;;14.10;64.90;;;;;;2558311;54;21001;-82
2023/01/11 06:46:35;;;;;;;1.05;0.30;;;14.10;64.90;;;;;;2318719;55;20985;-82
2023/01/11 06:49:02;;;;;;;0.50;0.30;;;14.10;64.90;;;;;;2318238;55;20977;-82
2023/01/11 06:51:28;;;;;;;1.10;0.20;;;14.10;64.80;;;;;;2557928;54;20993;-82
2023/01/11 06:53:55;;;;;;;0.95;0.45;;;14.10;64.70;;;;;;2558082;54;20941;-83
2023/01/11 06:56:22;;;;;;;0.95;0.40;;;14.10;64.70;;;;;;2557973;54;20941;-82
2023/01/11 06:58:48;;;;;;;0.77;0.37;;;14.20;64.80;;;;;;2558972;54;20938;-83
2023/01/11 07:01:15;;;;;;;0.73;0.40;;;14.10;64.60;;;;;;2317772;55;20969;-82
2023/01/11 07:03:42;;;;;;;1.20;0.50;;;14.20;64.90;;;;;;2558862;54;21796;-82
2023/01/11 07:06:08;;;;;;;0.68;0.40;;;14.20;64.90;;;;;;2318922;55;20969;-82
2023/01/11 07:08:34;;;;;;;1.60;0.68;;;14.20;64.80;;;;;;2554075;54;20913;-82
2023/01/11 07:11:01;;;;;;;2.03;0.90;;;14.20;64.90;;;;;;2535662;54;20938;-83
2023/01/11 07:13:28;;;;;;;1.98;0.90;;;14.20;64.90;;;;;;2558086;54;20942;-82
2023/01/11 07:15:55;;;;;;;2.30;1.00;;;14.20;64.90;;;;;;2559036;54;20941;-82
2023/01/11 07:18:22;;;;;;;2.85;1.12;;;14.20;64.90;;;;;;2557705;54;20941;-82
2023/01/11 07:20:50;;;;;;;4.07;1.80;;;14.20;64.80;;;;;;2531408;54;21444;-82
2023/01/11 07:23:16;;;;;;;3.20;1.40;;;14.30;64.90;;;;;;2557637;54;20946;-82
2023/01/11 07:25:42;;;;;;;3.00;1.40;;;14.30;64.90;;;;;;2558813;54;20981;-82
2023/01/11 07:28:09;;;;;;;3.12;1.27;;;14.30;65.00;;;;;;2557919;54;20898;-82
2023/01/11 07:30:38;;;;;;;2.53;1.20;;;14.30;65.00;;;;;;2318546;55;20969;-83
2023/01/11 07:33:22;;;;;;;2.10;0.98;;;14.30;64.80;;;;;;2558216;54;21865;-83
2023/01/11 07:35:49;;;;;;;1.30;0.52;;;14.30;64.90;;;;;;2558869;54;20925;-82
2023/01/11 07:38:15;;;;;;;1.60;0.60;;;14.30;64.80;;;;;;2557678;54;20922;-82
2023/01/11 07:40:42;;;;;;;1.15;0.57;;;14.40;64.90;;;;;;2558973;54;20972;-82
2023/01/11 07:43:17;;;;;;;1.23;0.60;;;14.40;65.00;;;;;;2557816;54;21480;-82
2023/01/11 07:45:48;;;;;;;2.80;0.55;;;14.40;65.00;;;;;;2319244;55;20953;-83
2023/01/11 07:48:23;;;;;;;2.72;0.65;;;14.40;64.90;;;;;;2318311;55;20961;-82
2023/01/11 07:50:51;;;;;;;1.33;0.43;;;14.40;64.90;;;;;;2558429;54;20937;-82
2023/01/11 07:53:20;;;;;;;1.52;0.52;;;14.50;64.90;;;;;;2559086;54;20973;-82
2023/01/11 07:55:47;;;;;;;2.20;0.70;;;14.40;64.70;;;;;;2561672;54;20934;-81
2023/01/11 07:58:14;;;;;;;1.42;0.57;;;14.40;64.80;;;;;;2321808;55;20985;-82
2023/01/11 08:00:42;;;;;;;3.17;0.90;;;14.50;64.80;;;;;;2561543;54;20998;-82
2023/01/11 08:03:09;;;;;;;1.17;0.52;;;14.50;64.80;;;;;;2560630;54;21069;-82
2023/01/11 08:05:36;;;;;;;1.15;0.50;;;14.50;64.80;;;;;;2561451;54;20937;-82
2023/01/11 08:08:03;;;;;;;0.37;0.13;;;14.50;64.60;;;;;;2536170;54;20953;-82
2023/01/11 08:10:30;;;;;;;0.88;0.30;;;14.50;64.70;;;;;;2320116;55;20953;-82
2023/01/11 08:15:42;;;;;;;1.35;0.40;;;14.60;64.70;;;;;;2561769;54;20966;-82
2023/01/11 08:18:10;;;;;;;1.25;0.50;;;14.60;64.70;;;;;;2560422;54;20997;-82
2023/01/11 08:20:37;;;;;;;3.60;2.00;;;14.60;64.60;;;;;;2560997;54;21823;-82
2023/01/11 08:23:04;;;;;;;3.40;1.52;;;14.70;64.70;;;;;;2321699;55;21427;-82
2023/01/11 08:25:31;;;;;;;3.40;1.60;;;14.70;64.50;;;;;;2560995;54;20922;-81
2023/01/11 08:28:01;;;;;;;2.53;0.98;;;14.70;64.60;;;;;;2561702;54;20977;-82
2023/01/11 08:30:28;;;;;;;3.03;0.68;;;14.70;64.40;;;;;;2560544;54;21345;-82
2023/01/11 08:32:56;;;;;;;1.73;0.50;;;14.70;64.50;;;;;;2561559;54;20945;-82
2023/01/11 08:35:24;;;;;;;1.02;0.40;;;14.70;64.40;;;;;;2560514;54;20956;-82
2023/01/11 08:37:50;;;;;;;0.65;0.30;;;14.80;64.30;;;;;;2313341;55;20917;-82
2023/01/11 08:40:17;;;;;;;1.08;0.35;;;14.80;64.30;;;;;;2546986;54;20977;-82
2023/01/11 08:42:43;;;;;;;1.23;0.40;;;14.80;64.10;;;;;;2561464;54;21886;-83
2023/01/11 08:45:10;;;;;;;1.90;0.40;;;14.80;64.10;;;;;;2560630;54;20938;-81
2023/01/11 08:47:36;;;;;;;0.77;0.30;;;14.70;63.90;;;;;;2558144;54;21089;-81
2023/01/11 08:50:04;;;;;;;1.35;0.50;;;14.80;64.20;;;;;;2558620;54;20905;-82
2023/01/11 08:52:30;;;;;;;1.10;0.60;;;14.80;64.10;;;;;;2318876;55;20898;-82
2023/01/11 08:54:58;;;;;;;1.05;0.35;;;14.90;64.10;;;;;;2558824;54;21045;-83
2023/01/11 08:57:24;;;;;;;1.08;0.40;;;14.90;64.00;;;;;;2557686;54;20962;-82
2023/01/11 08:59:52;;;;;;;0.85;0.20;;;14.90;64.00;;;;;;2558546;54;20949;-82
2023/01/11 09:02:19;;;;;;;0.90;0.22;;;14.90;63.80;;;;;;2557842;54;21565;-83
2023/01/11 09:04:45;;;;;;;0.45;0.20;;;14.90;63.90;;;;;;2559368;54;20930;-83
2023/01/11 09:07:13;;;;;;;1.15;0.30;;;15.00;63.90;;;;;;2558115;54;20933;-82
2023/01/11 09:09:40;;;;;;;0.70;0.20;;;15.00;64.00;;;;;;2557872;54;20933;-82
2023/01/11 09:12:06;;;;;;;0.73;0.22;;;15.00;63.90;;;;;;2556026;54;20914;-82
2023/01/11 09:14:33;;;;;;;0.60;0.30;;;15.00;63.80;;;;;;2317617;55;21490;-82
2023/01/11 09:16:59;;;;;;;0.77;0.30;;;15.00;63.80;;;;;;2558555;54;21002;-82
2023/01/11 09:19:26;;;;;;;0.85;0.30;;;15.10;63.80;;;;;;2558206;54;21471;-81
2023/01/11 09:21:55;;;;;;;1.33;0.35;;;15.20;63.80;;;;;;2559893;54;20937;-81
2023/01/11 09:24:21;;;;;;;0.62;0.37;;;15.10;63.80;;;;;;2320773;55;21258;-83
2023/01/11 09:26:48;;;;;;;0.77;0.30;;;15.20;64.00;;;;;;2560538;54;20925;-83
2023/01/11 09:29:15;;;;;;;0.30;0.20;;;15.10;63.90;;;;;;2558339;54;20986;-82
2023/01/11 09:31:41;;;;;;;0.70;0.40;;;15.20;64.00;;;;;;2318116;55;21007;-82
2023/01/11 09:34:11;;;;;;;2.40;0.55;;;15.20;63.90;;;;;;2556528;54;21032;-82
2023/01/11 09:36:39;;;;;;;1.17;0.32;;;15.20;63.90;;;;;;2317531;55;21985;-83
2023/01/11 09:39:11;;;;;;;1.05;0.30;;;15.20;63.80;;;;;;2557201;54;20999;-82
2023/01/11 09:42:00;;;;;;;0.88;0.30;;;15.20;63.60;;;;;;2558741;54;21049;-82
2023/01/11 09:44:28;;;;;;;0.88;0.30;;;15.20;63.70;;;;;;2557983;54;20953;-84
2023/01/11 09:47:50;;;;;;;0.95;0.30;;;15.20;63.80;;;;;;2558923;54;20941;-83
2023/01/11 09:50:24;;;;;;;0.65;0.30;;;15.30;63.50;;;;;;2557984;54;20937;-83
2023/01/11 09:53:03;;;;;;;0.95;0.30;;;15.30;63.60;;;;;;2559213;54;20969;-82
2023/01/11 09:55:38;;;;;;;0.82;0.30;;;15.30;63.50;;;;;;2558479;54;20974;-83
2023/01/11 10:05:08;;;;;;;1.10;0.30;;;15.30;63.60;;;;;;2558432;54;20937;-82
2023/01/11 10:08:12;;;;;;;1.10;0.40;;;15.30;63.40;;;;;;2557987;54;21784;-82
2023/01/11 10:10:49;;;;;;;1.23;0.40;;;15.30;63.50;;;;;;2558921;54;20958;-82
2023/01/11 10:13:44;;;;;;;1.25;0.40;;;15.30;64.00;;;;;;2558811;54;21375;-82
2023/01/11 10:17:08;;;;;;;0.62;0.30;;;15.20;63.60;;;;;;2319540;54;20910;-83
2023/01/11 10:19:59;;;;;;;1.58;0.47;;;15.20;63.60;;;;;;2559621;54;21646;-82
2023/01/11 10:22:31;;;;;;;1.02;0.45;;;15.20;63.90;;;;;;2559214;54;20926;-82
2023/01/11 10:25:14;;;;;;;1.20;0.50;;;15.20;64.30;;;;;;2560244;54;20978;-83
2023/01/11 10:27:55;;;;;;;1.00;0.40;;;15.20;64.40;;;;;;2559363;54;20957;-82
2023/01/11 10:40:39;;;;;;;0.85;0.30;;;15.20;64.70;;;;;;2319959;55;20957;-83
2023/01/11 10:43:16;;;;;;;0.88;0.32;;;15.20;64.70;;;;;;2559270;54;20969;-82
2023/01/11 10:45:48;;;;;;;0.88;0.30;;;15.10;64.70;;;;;;2320088;55;20949;-83
2023/01/11 10:51:00;;;;;;;0.85;0.32;;;15.10;64.80;;;;;;2319426;55;21799;-80
2023/01/11 10:54:02;;;;;;;0.60;0.40;;;15.10;64.40;;;;;;2558958;54;20937;-82
2023/01/11 10:59:14;;;;;;;0.82;0.30;;;15.00;64.60;;;;;;2559215;54;20934;-82
2023/01/11 11:02:10;;;;;;;1.12;0.47;;;15.00;64.50;;;;;;2559487;54;21021;-83
2023/01/11 11:05:10;;;;;;;1.23;0.52;;;15.00;65.00;;;;;;2559254;54;22300;-82
2023/01/11 11:07:51;;;;;;;1.35;0.35;;;15.00;65.10;;;;;;2559549;54;21053;-82
2023/01/11 11:11:02;;;;;;;1.67;0.50;;;14.90;65.30;;;;;;2532162;54;20957;-82
2023/01/11 11:14:12;;;;;;;1.70;0.50;;;14.70;65.10;;;;;;2556970;54;20930;-82
2023/01/11 11:16:53;;;;;;;1.23;0.50;;;14.90;65.40;;;;;;2317690;55;20922;-82
2023/01/11 11:19:22;;;;;;;1.83;0.70;;;14.80;65.60;;;;;;2556607;54;20905;-83
2023/01/11 11:21:51;;;;;;;1.08;0.43;;;14.80;65.70;;;;;;2556247;54;20977;-83
2023/01/11 11:24:26;;;;;;;1.95;0.40;;;14.80;65.80;;;;;;2555199;54;20941;-82
2023/01/11 11:26:59;;;;;;;1.40;0.50;;;14.80;65.80;;;;;;2557303;54;21015;-82
2023/01/11 11:29:29;;;;;;;0.93;0.37;;;14.80;65.90;;;;;;2555384;54;20937;-83
2023/01/11 11:32:00;;;;;;;1.42;0.65;;;14.80;66.00;;;;;;2556223;54;21518;-83
2023/01/11 11:34:27;;;;;;;0.97;0.40;;;14.80;66.00;;;;;;2554986;54;20977;-83
2023/01/11 11:36:54;;;;;;;1.00;0.40;;;14.80;66.10;;;;;;2555848;54;20946;-82
2023/01/11 11:39:26;;;;;;;1.10;0.50;;;14.80;66.20;;;;;;2554475;54;20918;-82
2023/01/11 11:41:55;;;;;;;1.92;0.50;;;14.80;66.20;;;;;;2557301;54;20929;-82
2023/01/11 11:44:23;;;;;;;2.33;0.60;;;14.80;66.20;;;;;;2557573;54;20918;-83
2023/01/11 11:47:08;;;;;;;1.40;0.47;;;14.70;66.20;;;;;;2558682;54;21060;-83
2023/01/11 11:49:35;;;;;;;2.95;0.65;;;14.70;66.20;;;;;;2317421;54;1368480;-82
2023/01/11 11:52:02;;;;;;;1.48;0.60;;;14.70;66.20;;;;;;2562384;54;20981;-83
2023/01/11 11:54:31;;;;;;;1.62;0.55;;;14.70;66.30;;;;;;2562158;54;20993;-83
2023/01/11 11:58:55;;;;;;;1.92;0.80;;;14.70;66.40;;;;;;2563586;54;20938;-83
2023/01/11 12:01:27;;;;;;;1.52;0.60;;;14.70;66.00;;;;;;2563389;54;21009;-83
2023/01/11 12:03:58;;;;;;;2.40;0.40;;;14.70;66.50;;;;;;2563790;54;20970;-84
2023/01/11 12:06:26;;;;;;;1.25;0.50;;;14.70;66.60;;;;;;2322807;55;21859;-84
2023/01/11 12:08:54;;;;;;;2.08;0.68;;;14.80;66.80;;;;;;2561017;54;20981;-83
2023/01/11 12:11:33;;;;;;;1.62;0.60;;;14.80;66.90;;;;;;2559685;54;20977;-84
2023/01/11 12:14:22;;;;;;;1.35;0.60;;;14.70;67.00;;;;;;2319693;55;20989;-83
2023/01/11 12:16:50;;;;;;;0.98;0.47;;;14.70;67.00;;;;;;2531216;54;20997;-83
2023/01/11 12:19:41;;;;;;;1.80;0.60;;;14.70;67.10;;;;;;2557098;54;21032;-83
2023/01/11 12:22:21;;;;;;;0.93;0.40;;;14.70;67.00;;;;;;2557553;54;20966;-82
2023/01/11 12:25:23;;;;;;;1.40;0.52;;;14.70;67.10;;;;;;2322619;55;20985;-84
2023/01/11 12:28:01;;;;;;;1.30;0.50;;;14.70;67.10;;;;;;2557752;54;21387;-83
2023/01/11 12:30:53;;;;;;;1.15;0.45;;;14.70;67.20;;;;;;2556265;54;21528;-83
2023/01/11 12:34:43;;;;;;;1.30;0.40;;;14.70;67.10;;;;;;2557874;54;20997;-83
2023/01/11 12:37:26;;;;;;;0.98;0.40;;;14.70;67.10;;;;;;2320299;55;20985;-82
2023/01/11 12:41:50;;;;;;;1.95;0.70;;;14.70;67.30;;;;;;2557088;54;21033;-82
2023/01/11 12:46:03;;;;;;;1.42;0.43;;;14.70;67.40;;;;;;2531706;54;21581;-83
2023/01/11 12:50:25;;;;;;;2.85;0.90;;;14.80;67.10;;;;;;2319598;55;21057;-83
2023/01/11 12:56:14;;;;;;;2.70;0.82;;;14.80;67.10;;;;;;2559333;54;20926;-82
2023/01/11 13:02:13;;;;;;;2.12;0.88;;;14.80;67.10;;;;;;2559072;54;20945;-82
2023/01/11 13:05:02;;;;;;;1.30;0.50;;;14.80;67.40;;;;;;2557125;54;20934;-82
2023/01/11 13:07:51;;;;;;;1.45;0.57;;;14.80;67.60;;;;;;2318038;55;20974;-83
2023/01/11 13:11:47;;;;;;;1.00;0.50;;;14.80;67.70;;;;;;2533243;54;20993;-83
2023/01/11 13:15:47;;;;;;;2.53;0.70;;;14.80;67.60;;;;;;2559977;54;20974;-82
2023/01/11 13:18:32;;;;;;;1.17;0.50;;;14.80;67.50;;;;;;2559916;54;20969;-83
2023/01/11 13:21:34;;;;;;;1.90;0.73;;;14.80;67.80;;;;;;2560624;54;20944;-84
2023/01/11 13:24:44;;;;;;;1.83;0.73;;;14.70;67.90;;;;;;2560673;54;21060;-83
2023/01/11 13:27:13;;;;;;;1.85;0.80;;;14.90;67.90;;;;;;2560429;54;20956;-82
2023/01/11 13:29:41;;;;;;;2.00;0.80;;;14.90;68.20;;;;;;2560549;54;21279;-83
2023/01/11 13:32:15;;;;;;;1.33;0.60;;;14.90;68.30;;;;;;2561004;54;20945;-84
2023/01/11 13:34:52;;;;;;;1.33;0.60;;;14.90;68.50;;;;;;2562628;54;21045;-84
2023/01/11 13:37:30;;;;;;;1.35;0.60;;;14.90;68.20;;;;;;2561164;54;21082;-81
2023/01/11 13:40:08;;;;;;;1.15;0.60;;;14.90;68.20;;;;;;2322301;55;20985;-83
2023/01/11 13:42:36;;;;;;;2.62;0.60;;;14.90;68.00;;;;;;2560704;54;20973;-82
2023/01/11 13:47:06;;;;;;;2.30;0.60;;;14.90;68.10;;;;;;2561677;54;21060;-82
2023/01/11 13:49:58;;;;;;;1.50;0.60;;;15.00;67.80;;;;;;2561205;54;21367;-82
2023/01/11 13:54:18;;;;;;;1.42;0.60;;;15.00;68.00;;;;;;2322218;55;20926;-83
2023/01/11 13:56:53;;;;;;;0.95;0.35;;;15.00;67.70;;;;;;2326894;55;20937;-83
2023/01/11 13:59:33;;;;;;;1.17;0.47;;;15.00;68.00;;;;;;2533572;54;21070;-83
2023/01/11 14:02:21;;;;;;;1.67;0.43;;;15.00;68.00;;;;;;2562417;54;21005;-84
2023/01/11 14:18:24;;;;;;;1.37;0.60;;;15.00;68.20;;;;;;2562662;54;21005;-83
2023/01/11 14:21:53;;;;;;;1.55;0.60;;;15.10;67.80;;;;;;2428226;52;23390;-76
2023/01/11 14:24:19;;;;;;;1.75;0.80;;;15.10;68.00;;;;;;2331426;53;20982;-75
2023/01/11 14:29:49;;;;;;;5.47;2.22;;;15.00;68.20;;;;;;2576020;52;21044;-76
2023/01/11 14:32:27;;;;;;;3.55;1.42;;;15.00;68.20;;;;;;2334785;53;20956;-76
2023/01/11 14:37:03;;;;;;;7.35;1.25;;;15.00;68.20;;;;;;2281619;54;21018;-76
2023/01/11 14:42:44;;;;;;;2.45;0.85;;;15.00;68.00;;;;;;2397824;54;20998;-76
2023/01/11 14:47:00;;;;;;;1.90;0.75;;;15.00;68.10;;;;;;2285231;54;21508;-76
2023/01/11 14:56:34;;;;;;;2.20;0.60;;;14.90;67.50;;;;;;2338397;54;21000;-76
2023/01/11 14:59:02;;;;;;;1.48;0.40;;;14.90;67.50;;;;;;2311471;54;21332;-76